sensor_id;sensor_type;location;lat;lon;timestamp;temperature;humidity
26909;DHT22;14477;51.038;4.588;2022-12-18T00:00:02;-2.30;96.20
26909;DHT22;14477;51.038;4.588;2022-12-18T00:02:28;-2.40;96.10
26909;DHT22;14477;51.038;4.588;2022-12-18T00:04:54;-2.40;96.10
26909;DHT22;14477;51.038;4.588;2022-12-18T00:07:19;-2.40;96.00
26909;DHT22;14477;51.038;4.588;2022-12-18T00:09:45;-2.50;96.00
26909;DHT22;14477;51.038;4.588;2022-12-18T00:12:11;-2.50;96.00
26909;DHT22;14477;51.038;4.588;2022-12-18T00:14:37;-2.60;96.00
26909;DHT22;14477;51.038;4.588;2022-12-18T00:17:02;-2.60;95.90
26909;DHT22;14477;51.038;4.588;2022-12-18T00:19:28;-2.60;95.90
26909;DHT22;14477;51.038;4.588;2022-12-18T00:21:54;-2.70;95.90
26909;DHT22;14477;51.038;4.588;2022-12-18T00:24:19;-2.70;95.90
26909;DHT22;14477;51.038;4.588;2022-12-18T00:26:45;-2.70;95.90
26909;DHT22;14477;51.038;4.588;2022-12-18T00:29:13;-2.70;95.90
26909;DHT22;14477;51.038;4.588;2022-12-18T00:31:42;-2.70;95.90
26909;DHT22;14477;51.038;4.588;2022-12-18T00:34:10;-2.80;95.80
26909;DHT22;14477;51.038;4.588;2022-12-18T00:36:39;-2.80;95.80
26909;DHT22;14477;51.038;4.588;2022-12-18T00:39:05;-2.80;95.70
26909;DHT22;14477;51.038;4.588;2022-12-18T00:41:31;-2.80;95.60
26909;DHT22;14477;51.038;4.588;2022-12-18T00:44:17;-2.90;95.50
26909;DHT22;14477;51.038;4.588;2022-12-18T00:46:44;-2.90;95.50
26909;DHT22;14477;51.038;4.588;2022-12-18T00:49:12;-2.90;95.40
26909;DHT22;14477;51.038;4.588;2022-12-18T00:51:38;-3.00;95.30
26909;DHT22;14477;51.038;4.588;2022-12-18T00:54:05;-3.00;95.20
26909;DHT22;14477;51.038;4.588;2022-12-18T00:56:31;-3.00;95.20
26909;DHT22;14477;51.038;4.588;2022-12-18T00:58:57;-3.10;95.20
26909;DHT22;14477;51.038;4.588;2022-12-18T01:01:23;-3.10;95.10
26909;DHT22;14477;51.038;4.588;2022-12-18T01:03:48;-3.10;95.00
26909;DHT22;14477;51.038;4.588;2022-12-18T01:06:15;-3.10;95.00
26909;DHT22;14477;51.038;4.588;2022-12-18T01:08:41;-3.10;95.00
26909;DHT22;14477;51.038;4.588;2022-12-18T01:11:08;-3.20;94.80
26909;DHT22;14477;51.038;4.588;2022-12-18T01:13:34;-3.20;95.10
26909;DHT22;14477;51.038;4.588;2022-12-18T01:16:00;-3.20;94.80
26909;DHT22;14477;51.038;4.588;2022-12-18T01:18:26;-3.30;94.80
26909;DHT22;14477;51.038;4.588;2022-12-18T01:20:51;-3.30;94.90
26909;DHT22;14477;51.038;4.588;2022-12-18T01:23:17;-3.30;94.90
26909;DHT22;14477;51.038;4.588;2022-12-18T01:25:43;-3.30;95.00
26909;DHT22;14477;51.038;4.588;2022-12-18T01:28:08;-3.40;95.00
26909;DHT22;14477;51.038;4.588;2022-12-18T01:30:34;-3.40;95.00
26909;DHT22;14477;51.038;4.588;2022-12-18T01:33:00;-3.40;95.00
26909;DHT22;14477;51.038;4.588;2022-12-18T01:35:26;-3.40;95.00
26909;DHT22;14477;51.038;4.588;2022-12-18T01:37:54;-3.40;95.10
26909;DHT22;14477;51.038;4.588;2022-12-18T01:40:20;-3.40;95.10
26909;DHT22;14477;51.038;4.588;2022-12-18T01:42:53;-3.40;95.20
26909;DHT22;14477;51.038;4.588;2022-12-18T01:45:28;-3.40;95.20
26909;DHT22;14477;51.038;4.588;2022-12-18T01:48:03;-3.40;95.10
26909;DHT22;14477;51.038;4.588;2022-12-18T01:50:31;-3.50;95.20
26909;DHT22;14477;51.038;4.588;2022-12-18T01:53:11;-3.50;95.10
26909;DHT22;14477;51.038;4.588;2022-12-18T01:55:45;-3.50;95.10
26909;DHT22;14477;51.038;4.588;2022-12-18T01:58:12;-3.50;95.10
26909;DHT22;14477;51.038;4.588;2022-12-18T02:00:38;-3.50;95.20
26909;DHT22;14477;51.038;4.588;2022-12-18T02:03:04;-3.50;95.10
26909;DHT22;14477;51.038;4.588;2022-12-18T02:19:09;-3.60;95.00
26909;DHT22;14477;51.038;4.588;2022-12-18T02:21:57;-3.60;95.10
26909;DHT22;14477;51.038;4.588;2022-12-18T02:24:42;-3.60;95.10
26909;DHT22;14477;51.038;4.588;2022-12-18T02:27:11;-3.60;95.10
26909;DHT22;14477;51.038;4.588;2022-12-18T02:30:03;-3.60;95.00
26909;DHT22;14477;51.038;4.588;2022-12-18T02:32:38;-3.70;95.10
26909;DHT22;14477;51.038;4.588;2022-12-18T02:35:06;-3.70;95.20
26909;DHT22;14477;51.038;4.588;2022-12-18T02:37:34;-3.70;95.10
26909;DHT22;14477;51.038;4.588;2022-12-18T02:40:03;-3.70;95.10
26909;DHT22;14477;51.038;4.588;2022-12-18T02:42:29;-3.70;95.10
26909;DHT22;14477;51.038;4.588;2022-12-18T02:44:56;-3.70;95.00
26909;DHT22;14477;51.038;4.588;2022-12-18T02:47:25;-3.70;95.10
26909;DHT22;14477;51.038;4.588;2022-12-18T02:50:22;-3.70;95.20
26909;DHT22;14477;51.038;4.588;2022-12-18T02:53:20;-3.70;95.30
26909;DHT22;14477;51.038;4.588;2022-12-18T02:56:15;-3.70;95.50
26909;DHT22;14477;51.038;4.588;2022-12-18T03:01:30;-3.70;95.50
26909;DHT22;14477;51.038;4.588;2022-12-18T03:04:06;-3.70;95.80
26909;DHT22;14477;51.038;4.588;2022-12-18T03:06:44;-3.70;95.40
26909;DHT22;14477;51.038;4.588;2022-12-18T03:09:18;-3.70;95.40
26909;DHT22;14477;51.038;4.588;2022-12-18T03:11:49;-3.70;95.40
26909;DHT22;14477;51.038;4.588;2022-12-18T03:14:38;-3.70;95.40
26909;DHT22;14477;51.038;4.588;2022-12-18T03:17:07;-3.70;95.70
26909;DHT22;14477;51.038;4.588;2022-12-18T03:19:34;-3.70;95.40
26909;DHT22;14477;51.038;4.588;2022-12-18T03:22:02;-3.70;95.40
26909;DHT22;14477;51.038;4.588;2022-12-18T03:24:29;-3.70;95.50
26909;DHT22;14477;51.038;4.588;2022-12-18T03:27:17;-3.70;95.50
26909;DHT22;14477;51.038;4.588;2022-12-18T03:29:50;-3.70;95.50
26909;DHT22;14477;51.038;4.588;2022-12-18T03:32:29;-3.80;95.50
26909;DHT22;14477;51.038;4.588;2022-12-18T03:34:59;-3.70;95.60
26909;DHT22;14477;51.038;4.588;2022-12-18T03:37:27;-3.70;95.60
26909;DHT22;14477;51.038;4.588;2022-12-18T03:39:52;-3.80;95.50
26909;DHT22;14477;51.038;4.588;2022-12-18T03:42:25;-3.80;95.50
26909;DHT22;14477;51.038;4.588;2022-12-18T03:44:56;-3.80;95.50
26909;DHT22;14477;51.038;4.588;2022-12-18T03:52:36;-3.80;95.30
26909;DHT22;14477;51.038;4.588;2022-12-18T03:55:03;-3.80;95.20
26909;DHT22;14477;51.038;4.588;2022-12-18T03:57:31;-3.80;95.10
26909;DHT22;14477;51.038;4.588;2022-12-18T04:00:05;-3.80;95.00
26909;DHT22;14477;51.038;4.588;2022-12-18T04:02:33;-3.80;94.90
26909;DHT22;14477;51.038;4.588;2022-12-18T04:05:03;-3.90;94.80
26909;DHT22;14477;51.038;4.588;2022-12-18T04:07:30;-3.90;94.80
26909;DHT22;14477;51.038;4.588;2022-12-18T04:09:56;-3.90;94.70
26909;DHT22;14477;51.038;4.588;2022-12-18T04:12:25;-3.90;94.80
26909;DHT22;14477;51.038;4.588;2022-12-18T04:14:52;-3.90;94.80
26909;DHT22;14477;51.038;4.588;2022-12-18T04:17:17;-4.00;94.80
26909;DHT22;14477;51.038;4.588;2022-12-18T04:19:43;-4.00;94.80
26909;DHT22;14477;51.038;4.588;2022-12-18T04:22:12;-4.00;94.80
26909;DHT22;14477;51.038;4.588;2022-12-18T04:24:38;-4.00;94.90
26909;DHT22;14477;51.038;4.588;2022-12-18T04:27:03;-4.00;94.90
26909;DHT22;14477;51.038;4.588;2022-12-18T04:29:29;-4.00;94.80
26909;DHT22;14477;51.038;4.588;2022-12-18T04:31:55;-4.00;94.80
26909;DHT22;14477;51.038;4.588;2022-12-18T04:34:21;-4.00;94.70
26909;DHT22;14477;51.038;4.588;2022-12-18T04:36:47;-4.00;94.70
26909;DHT22;14477;51.038;4.588;2022-12-18T04:39:13;-4.10;94.60
26909;DHT22;14477;51.038;4.588;2022-12-18T04:41:39;-4.10;94.60
26909;DHT22;14477;51.038;4.588;2022-12-18T04:44:05;-4.10;94.60
26909;DHT22;14477;51.038;4.588;2022-12-18T04:46:31;-4.10;94.60
26909;DHT22;14477;51.038;4.588;2022-12-18T04:48:56;-4.10;94.60
26909;DHT22;14477;51.038;4.588;2022-12-18T04:51:22;-4.10;94.60
26909;DHT22;14477;51.038;4.588;2022-12-18T04:53:48;-4.10;94.60
26909;DHT22;14477;51.038;4.588;2022-12-18T04:56:14;-4.20;94.50
26909;DHT22;14477;51.038;4.588;2022-12-18T04:58:42;-4.20;94.60
26909;DHT22;14477;51.038;4.588;2022-12-18T05:01:09;-4.20;94.50
26909;DHT22;14477;51.038;4.588;2022-12-18T05:03:35;-4.20;94.50
26909;DHT22;14477;51.038;4.588;2022-12-18T05:06:03;-4.20;94.40
26909;DHT22;14477;51.038;4.588;2022-12-18T05:08:29;-4.20;94.40
26909;DHT22;14477;51.038;4.588;2022-12-18T05:11:02;-4.20;94.30
26909;DHT22;14477;51.038;4.588;2022-12-18T05:13:28;-4.30;94.20
26909;DHT22;14477;51.038;4.588;2022-12-18T05:15:54;-4.30;94.20
26909;DHT22;14477;51.038;4.588;2022-12-18T05:18:21;-4.30;94.00
26909;DHT22;14477;51.038;4.588;2022-12-18T05:20:47;-4.30;94.00
26909;DHT22;14477;51.038;4.588;2022-12-18T05:23:13;-4.40;93.90
26909;DHT22;14477;51.038;4.588;2022-12-18T05:25:39;-4.40;93.90
26909;DHT22;14477;51.038;4.588;2022-12-18T05:28:04;-4.40;93.90
26909;DHT22;14477;51.038;4.588;2022-12-18T05:30:30;-4.40;93.90
26909;DHT22;14477;51.038;4.588;2022-12-18T05:32:56;-4.50;93.90
26909;DHT22;14477;51.038;4.588;2022-12-18T05:35:22;-4.50;93.90
26909;DHT22;14477;51.038;4.588;2022-12-18T05:37:47;-4.50;93.90
26909;DHT22;14477;51.038;4.588;2022-12-18T05:40:13;-4.50;93.90
26909;DHT22;14477;51.038;4.588;2022-12-18T05:42:39;-4.50;94.00
26909;DHT22;14477;51.038;4.588;2022-12-18T05:45:05;-4.50;94.00
26909;DHT22;14477;51.038;4.588;2022-12-18T05:47:31;-4.50;94.10
26909;DHT22;14477;51.038;4.588;2022-12-18T05:49:57;-4.50;94.00
26909;DHT22;14477;51.038;4.588;2022-12-18T05:52:23;-4.50;94.10
26909;DHT22;14477;51.038;4.588;2022-12-18T05:54:49;-4.60;94.10
26909;DHT22;14477;51.038;4.588;2022-12-18T05:57:14;-4.60;94.10
26909;DHT22;14477;51.038;4.588;2022-12-18T05:59:40;-4.60;94.10
26909;DHT22;14477;51.038;4.588;2022-12-18T06:02:06;-4.60;94.10
26909;DHT22;14477;51.038;4.588;2022-12-18T06:04:31;-4.50;94.10
26909;DHT22;14477;51.038;4.588;2022-12-18T06:06:57;-4.60;94.10
26909;DHT22;14477;51.038;4.588;2022-12-18T06:09:23;-4.50;94.20
26909;DHT22;14477;51.038;4.588;2022-12-18T06:11:51;-4.60;94.30
26909;DHT22;14477;51.038;4.588;2022-12-18T06:14:18;-4.60;94.40
26909;DHT22;14477;51.038;4.588;2022-12-18T06:16:44;-4.50;94.50
26909;DHT22;14477;51.038;4.588;2022-12-18T06:19:14;-4.50;94.50
26909;DHT22;14477;51.038;4.588;2022-12-18T06:21:40;-4.50;94.50
26909;DHT22;14477;51.038;4.588;2022-12-18T06:24:06;-4.50;94.50
26909;DHT22;14477;51.038;4.588;2022-12-18T06:26:31;-4.50;94.50
26909;DHT22;14477;51.038;4.588;2022-12-18T06:28:57;-4.50;94.40
26909;DHT22;14477;51.038;4.588;2022-12-18T06:31:24;-4.50;94.40
26909;DHT22;14477;51.038;4.588;2022-12-18T06:33:49;-4.50;94.40
26909;DHT22;14477;51.038;4.588;2022-12-18T06:36:15;-4.60;94.30
26909;DHT22;14477;51.038;4.588;2022-12-18T06:38:42;-4.50;94.40
26909;DHT22;14477;51.038;4.588;2022-12-18T06:41:13;-4.50;94.40
26909;DHT22;14477;51.038;4.588;2022-12-18T06:43:40;-4.50;94.40
26909;DHT22;14477;51.038;4.588;2022-12-18T06:46:06;-4.50;94.40
26909;DHT22;14477;51.038;4.588;2022-12-18T06:48:33;-4.50;94.40
26909;DHT22;14477;51.038;4.588;2022-12-18T06:50:58;-4.50;94.50
26909;DHT22;14477;51.038;4.588;2022-12-18T06:53:25;-4.50;94.50
26909;DHT22;14477;51.038;4.588;2022-12-18T06:55:50;-4.50;94.50
26909;DHT22;14477;51.038;4.588;2022-12-18T06:58:16;-4.60;94.50
26909;DHT22;14477;51.038;4.588;2022-12-18T07:00:42;-4.60;94.40
26909;DHT22;14477;51.038;4.588;2022-12-18T07:03:08;-4.50;94.40
26909;DHT22;14477;51.038;4.588;2022-12-18T07:05:34;-4.50;94.30
26909;DHT22;14477;51.038;4.588;2022-12-18T07:08:04;-4.60;94.20
26909;DHT22;14477;51.038;4.588;2022-12-18T07:10:30;-4.60;94.10
26909;DHT22;14477;51.038;4.588;2022-12-18T07:12:56;-4.60;94.10
26909;DHT22;14477;51.038;4.588;2022-12-18T07:15:21;-4.60;94.00
26909;DHT22;14477;51.038;4.588;2022-12-18T07:17:47;-4.60;94.00
26909;DHT22;14477;51.038;4.588;2022-12-18T07:20:13;-4.70;94.00
26909;DHT22;14477;51.038;4.588;2022-12-18T07:22:38;-4.60;94.00
26909;DHT22;14477;51.038;4.588;2022-12-18T07:25:05;-4.60;94.10
26909;DHT22;14477;51.038;4.588;2022-12-18T07:27:31;-4.70;94.10
26909;DHT22;14477;51.038;4.588;2022-12-18T07:29:56;-4.70;94.10
26909;DHT22;14477;51.038;4.588;2022-12-18T07:32:22;-4.70;94.20
26909;DHT22;14477;51.038;4.588;2022-12-18T07:34:48;-4.70;94.30
26909;DHT22;14477;51.038;4.588;2022-12-18T07:37:14;-4.70;94.30
26909;DHT22;14477;51.038;4.588;2022-12-18T07:39:39;-4.60;94.30
26909;DHT22;14477;51.038;4.588;2022-12-18T07:42:05;-4.60;94.30
26909;DHT22;14477;51.038;4.588;2022-12-18T07:44:49;-4.70;94.20
26909;DHT22;14477;51.038;4.588;2022-12-18T07:47:15;-4.60;94.20
26909;DHT22;14477;51.038;4.588;2022-12-18T07:49:40;-4.60;94.20
26909;DHT22;14477;51.038;4.588;2022-12-18T07:52:06;-4.70;94.50
26909;DHT22;14477;51.038;4.588;2022-12-18T07:54:31;-4.60;94.30
26909;DHT22;14477;51.038;4.588;2022-12-18T07:56:57;-4.60;94.50
26909;DHT22;14477;51.038;4.588;2022-12-18T07:59:23;-4.60;94.60
26909;DHT22;14477;51.038;4.588;2022-12-18T08:01:48;-4.60;94.80
26909;DHT22;14477;51.038;4.588;2022-12-18T08:04:14;-4.60;94.90
26909;DHT22;14477;51.038;4.588;2022-12-18T08:06:39;-4.60;95.10
26909;DHT22;14477;51.038;4.588;2022-12-18T08:09:05;-4.50;95.30
26909;DHT22;14477;51.038;4.588;2022-12-18T08:11:31;-4.50;95.40
26909;DHT22;14477;51.038;4.588;2022-12-18T08:13:57;-4.40;95.60
26909;DHT22;14477;51.038;4.588;2022-12-18T08:16:23;-4.40;95.80
26909;DHT22;14477;51.038;4.588;2022-12-18T08:18:51;-4.40;95.90
26909;DHT22;14477;51.038;4.588;2022-12-18T08:21:19;-4.30;96.20
26909;DHT22;14477;51.038;4.588;2022-12-18T08:23:48;-4.20;96.50
26909;DHT22;14477;51.038;4.588;2022-12-18T08:26:14;-4.10;96.80
26909;DHT22;14477;51.038;4.588;2022-12-18T08:28:42;-4.00;97.20
26909;DHT22;14477;51.038;4.588;2022-12-18T08:31:08;-3.90;97.50
26909;DHT22;14477;51.038;4.588;2022-12-18T08:33:35;-3.80;97.90
26909;DHT22;14477;51.038;4.588;2022-12-18T08:36:02;-3.60;98.30
26909;DHT22;14477;51.038;4.588;2022-12-18T08:38:27;-3.50;98.50
26909;DHT22;14477;51.038;4.588;2022-12-18T08:41:00;-3.40;98.60
26909;DHT22;14477;51.038;4.588;2022-12-18T08:43:26;-3.30;98.70
26909;DHT22;14477;51.038;4.588;2022-12-18T08:46:11;-3.20;98.90
26909;DHT22;14477;51.038;4.588;2022-12-18T08:48:37;-3.10;98.90
26909;DHT22;14477;51.038;4.588;2022-12-18T08:51:03;-3.00;99.10
26909;DHT22;14477;51.038;4.588;2022-12-18T08:53:29;-2.90;99.10
26909;DHT22;14477;51.038;4.588;2022-12-18T08:55:56;-2.90;99.20
26909;DHT22;14477;51.038;4.588;2022-12-18T08:58:22;-2.70;99.30
26909;DHT22;14477;51.038;4.588;2022-12-18T09:00:48;-2.60;99.50
26909;DHT22;14477;51.038;4.588;2022-12-18T09:03:15;-2.60;99.60
26909;DHT22;14477;51.038;4.588;2022-12-18T09:05:41;-2.50;99.70
26909;DHT22;14477;51.038;4.588;2022-12-18T09:08:07;-2.40;99.90
26909;DHT22;14477;51.038;4.588;2022-12-18T09:10:34;-2.30;99.90
26909;DHT22;14477;51.038;4.588;2022-12-18T09:13:00;-2.20;99.90
26909;DHT22;14477;51.038;4.588;2022-12-18T09:15:25;-2.10;99.90
26909;DHT22;14477;51.038;4.588;2022-12-18T09:17:51;-2.00;99.90
26909;DHT22;14477;51.038;4.588;2022-12-18T09:20:18;-1.90;99.90
26909;DHT22;14477;51.038;4.588;2022-12-18T09:22:44;-1.80;99.90
26909;DHT22;14477;51.038;4.588;2022-12-18T09:25:10;-1.70;99.90
26909;DHT22;14477;51.038;4.588;2022-12-18T09:27:36;-1.60;99.90
26909;DHT22;14477;51.038;4.588;2022-12-18T09:30:02;-1.50;99.90
26909;DHT22;14477;51.038;4.588;2022-12-18T09:32:28;-1.50;99.90
26909;DHT22;14477;51.038;4.588;2022-12-18T09:34:54;-1.40;99.90
26909;DHT22;14477;51.038;4.588;2022-12-18T09:37:19;-1.30;99.90
26909;DHT22;14477;51.038;4.588;2022-12-18T09:39:45;-1.20;99.90
26909;DHT22;14477;51.038;4.588;2022-12-18T09:42:21;-1.10;99.90
26909;DHT22;14477;51.038;4.588;2022-12-18T09:44:54;-1.00;99.90
26909;DHT22;14477;51.038;4.588;2022-12-18T09:47:30;-0.90;99.90
26909;DHT22;14477;51.038;4.588;2022-12-18T09:50:00;-0.80;99.90
26909;DHT22;14477;51.038;4.588;2022-12-18T09:52:45;-0.80;99.90
26909;DHT22;14477;51.038;4.588;2022-12-18T09:58:14;-0.70;99.90
26909;DHT22;14477;51.038;4.588;2022-12-18T10:00:42;-0.70;99.90
26909;DHT22;14477;51.038;4.588;2022-12-18T10:03:13;-0.60;99.90
26909;DHT22;14477;51.038;4.588;2022-12-18T10:06:13;-0.60;99.90
26909;DHT22;14477;51.038;4.588;2022-12-18T10:08:51;-0.50;99.90
26909;DHT22;14477;51.038;4.588;2022-12-18T10:19:54;-0.40;99.90
26909;DHT22;14477;51.038;4.588;2022-12-18T10:28:17;-0.30;99.90
26909;DHT22;14477;51.038;4.588;2022-12-18T10:30:44;-0.20;99.90
26909;DHT22;14477;51.038;4.588;2022-12-18T10:33:19;-0.20;99.90
26909;DHT22;14477;51.038;4.588;2022-12-18T10:35:48;-0.20;99.90
26909;DHT22;14477;51.038;4.588;2022-12-18T10:41:02;-0.10;99.90
26909;DHT22;14477;51.038;4.588;2022-12-18T10:43:38;-0.10;99.90
26909;DHT22;14477;51.038;4.588;2022-12-18T10:51:05;0.00;99.90
26909;DHT22;14477;51.038;4.588;2022-12-18T10:53:34;0.00;99.90
26909;DHT22;14477;51.038;4.588;2022-12-18T10:56:03;0.00;99.90
26909;DHT22;14477;51.038;4.588;2022-12-18T10:58:35;0.10;99.90
26909;DHT22;14477;51.038;4.588;2022-12-18T11:03:36;0.20;99.90
26909;DHT22;14477;51.038;4.588;2022-12-18T11:08:31;0.30;99.90
26909;DHT22;14477;51.038;4.588;2022-12-18T11:10:57;0.30;99.90
26909;DHT22;14477;51.038;4.588;2022-12-18T11:13:28;0.40;99.90
26909;DHT22;14477;51.038;4.588;2022-12-18T11:15:54;0.50;99.90
26909;DHT22;14477;51.038;4.588;2022-12-18T11:18:32;0.50;99.90
26909;DHT22;14477;51.038;4.588;2022-12-18T11:21:10;0.60;99.90
26909;DHT22;14477;51.038;4.588;2022-12-18T11:23:43;0.70;99.90
26909;DHT22;14477;51.038;4.588;2022-12-18T11:26:11;0.80;99.90
26909;DHT22;14477;51.038;4.588;2022-12-18T11:28:43;0.80;99.90
26909;DHT22;14477;51.038;4.588;2022-12-18T11:34:04;0.90;99.90
26909;DHT22;14477;51.038;4.588;2022-12-18T11:36:39;0.90;99.90
26909;DHT22;14477;51.038;4.588;2022-12-18T11:41:58;1.00;99.90
26909;DHT22;14477;51.038;4.588;2022-12-18T11:47:33;1.20;99.90
26909;DHT22;14477;51.038;4.588;2022-12-18T11:50:03;1.20;99.90
26909;DHT22;14477;51.038;4.588;2022-12-18T11:52:39;1.20;99.90
26909;DHT22;14477;51.038;4.588;2022-12-18T11:55:12;1.20;99.90
26909;DHT22;14477;51.038;4.588;2022-12-18T12:00:12;1.30;99.90
26909;DHT22;14477;51.038;4.588;2022-12-18T12:07:53;1.30;99.90
26909;DHT22;14477;51.038;4.588;2022-12-18T12:18:47;1.50;99.90
26909;DHT22;14477;51.038;4.588;2022-12-18T12:27:24;1.60;99.90
26909;DHT22;14477;51.038;4.588;2022-12-18T12:30:11;1.60;99.90
26909;DHT22;14477;51.038;4.588;2022-12-18T12:35:30;1.70;99.90
26909;DHT22;14477;51.038;4.588;2022-12-18T12:40:31;1.70;99.90
26909;DHT22;14477;51.038;4.588;2022-12-18T12:43:03;1.80;99.90
26909;DHT22;14477;51.038;4.588;2022-12-18T12:46:18;1.80;99.90
26909;DHT22;14477;51.038;4.588;2022-12-18T12:49:00;1.80;99.90
26909;DHT22;14477;51.038;4.588;2022-12-18T12:51:30;1.90;99.90
26909;DHT22;14477;51.038;4.588;2022-12-18T12:53:58;1.90;99.90
26909;DHT22;14477;51.038;4.588;2022-12-18T12:57:15;1.90;99.90
26909;DHT22;14477;51.038;4.588;2022-12-18T12:59:22;2.00;99.90
26909;DHT22;14477;51.038;4.588;2022-12-18T13:07:35;2.00;99.90
26909;DHT22;14477;51.038;4.588;2022-12-18T13:17:48;2.10;99.90
26909;DHT22;14477;51.038;4.588;2022-12-18T13:20:15;2.10;99.90
26909;DHT22;14477;51.038;4.588;2022-12-18T13:22:44;2.10;99.90
26909;DHT22;14477;51.038;4.588;2022-12-18T13:43:34;2.30;99.90
26909;DHT22;14477;51.038;4.588;2022-12-18T13:46:18;2.30;99.90
26909;DHT22;14477;51.038;4.588;2022-12-18T13:51:54;2.30;99.90
26909;DHT22;14477;51.038;4.588;2022-12-18T13:54:32;2.30;99.90
26909;DHT22;14477;51.038;4.588;2022-12-18T13:56:59;2.30;99.90
26909;DHT22;14477;51.038;4.588;2022-12-18T13:59:36;2.30;99.90
26909;DHT22;14477;51.038;4.588;2022-12-18T14:02:25;2.30;99.90
26909;DHT22;14477;51.038;4.588;2022-12-18T14:04:52;2.30;99.90
26909;DHT22;14477;51.038;4.588;2022-12-18T14:07:25;2.30;99.90
26909;DHT22;14477;51.038;4.588;2022-12-18T14:09:58;2.30;99.90
26909;DHT22;14477;51.038;4.588;2022-12-18T14:12:33;2.30;99.90
26909;DHT22;14477;51.038;4.588;2022-12-18T14:15:39;2.30;99.90
26909;DHT22;14477;51.038;4.588;2022-12-18T14:20:43;2.30;99.90
26909;DHT22;14477;51.038;4.588;2022-12-18T14:23:38;2.30;99.90
26909;DHT22;14477;51.038;4.588;2022-12-18T14:28:46;2.30;99.90
26909;DHT22;14477;51.038;4.588;2022-12-18T14:31:23;2.30;99.90
26909;DHT22;14477;51.038;4.588;2022-12-18T14:33:49;2.30;99.90
26909;DHT22;14477;51.038;4.588;2022-12-18T14:36:17;2.30;99.90
26909;DHT22;14477;51.038;4.588;2022-12-18T14:38:48;2.30;99.90
26909;DHT22;14477;51.038;4.588;2022-12-18T14:41:19;2.30;99.90
26909;DHT22;14477;51.038;4.588;2022-12-18T14:43:47;2.30;99.90
26909;DHT22;14477;51.038;4.588;2022-12-18T14:49:05;2.30;99.90
26909;DHT22;14477;51.038;4.588;2022-12-18T14:51:48;2.30;99.90
26909;DHT22;14477;51.038;4.588;2022-12-18T14:54:17;2.20;99.90
26909;DHT22;14477;51.038;4.588;2022-12-18T14:56:48;2.20;99.90
26909;DHT22;14477;51.038;4.588;2022-12-18T14:59:24;2.30;99.90
26909;DHT22;14477;51.038;4.588;2022-12-18T15:04:39;2.20;99.90
26909;DHT22;14477;51.038;4.588;2022-12-18T15:07:18;2.20;99.90
26909;DHT22;14477;51.038;4.588;2022-12-18T15:18:03;2.20;99.90
26909;DHT22;14477;51.038;4.588;2022-12-18T15:20:44;2.20;99.90
26909;DHT22;14477;51.038;4.588;2022-12-18T15:23:21;2.10;99.90
26909;DHT22;14477;51.038;4.588;2022-12-18T15:25:54;2.20;99.90
26909;DHT22;14477;51.038;4.588;2022-12-18T15:28:34;2.20;99.90
26909;DHT22;14477;51.038;4.588;2022-12-18T15:31:05;2.10;99.90
26909;DHT22;14477;51.038;4.588;2022-12-18T15:33:41;2.20;99.90
26909;DHT22;14477;51.038;4.588;2022-12-18T15:36:12;2.10;99.90
26909;DHT22;14477;51.038;4.588;2022-12-18T15:38:37;2.20;99.90
26909;DHT22;14477;51.038;4.588;2022-12-18T15:41:03;2.20;99.90
26909;DHT22;14477;51.038;4.588;2022-12-18T15:43:30;2.10;99.90
26909;DHT22;14477;51.038;4.588;2022-12-18T15:46:03;2.20;99.90
26909;DHT22;14477;51.038;4.588;2022-12-18T15:48:29;2.20;99.90
26909;DHT22;14477;51.038;4.588;2022-12-18T15:50:56;2.20;99.90
26909;DHT22;14477;51.038;4.588;2022-12-18T15:53:25;2.20;99.90
26909;DHT22;14477;51.038;4.588;2022-12-18T15:55:53;2.20;99.90
26909;DHT22;14477;51.038;4.588;2022-12-18T15:58:37;2.20;99.90
26909;DHT22;14477;51.038;4.588;2022-12-18T16:01:03;2.20;99.90
26909;DHT22;14477;51.038;4.588;2022-12-18T16:03:29;2.20;99.90
26909;DHT22;14477;51.038;4.588;2022-12-18T16:05:54;2.20;99.90
26909;DHT22;14477;51.038;4.588;2022-12-18T16:08:20;2.20;99.90
26909;DHT22;14477;51.038;4.588;2022-12-18T16:10:46;2.30;99.90
26909;DHT22;14477;51.038;4.588;2022-12-18T16:13:13;2.30;99.90
26909;DHT22;14477;51.038;4.588;2022-12-18T16:15:41;2.30;99.90
26909;DHT22;14477;51.038;4.588;2022-12-18T16:18:07;2.30;99.90
26909;DHT22;14477;51.038;4.588;2022-12-18T16:20:33;2.30;99.90
26909;DHT22;14477;51.038;4.588;2022-12-18T16:22:58;2.30;99.90
26909;DHT22;14477;51.038;4.588;2022-12-18T16:25:26;2.30;99.90
26909;DHT22;14477;51.038;4.588;2022-12-18T16:27:53;2.40;99.90
26909;DHT22;14477;51.038;4.588;2022-12-18T16:30:23;2.40;99.90
26909;DHT22;14477;51.038;4.588;2022-12-18T16:32:49;2.40;99.90
26909;DHT22;14477;51.038;4.588;2022-12-18T16:35:16;2.40;99.90
26909;DHT22;14477;51.038;4.588;2022-12-18T16:37:42;2.40;99.90
26909;DHT22;14477;51.038;4.588;2022-12-18T16:40:11;2.40;99.90
26909;DHT22;14477;51.038;4.588;2022-12-18T16:42:38;2.40;99.90
26909;DHT22;14477;51.038;4.588;2022-12-18T16:45:06;2.40;99.90
26909;DHT22;14477;51.038;4.588;2022-12-18T16:47:32;2.40;99.90
26909;DHT22;14477;51.038;4.588;2022-12-18T16:49:58;2.40;99.90
26909;DHT22;14477;51.038;4.588;2022-12-18T16:52:24;2.40;99.90
26909;DHT22;14477;51.038;4.588;2022-12-18T16:54:50;2.50;99.90
26909;DHT22;14477;51.038;4.588;2022-12-18T16:57:18;2.40;99.90
26909;DHT22;14477;51.038;4.588;2022-12-18T16:59:44;2.40;99.90
26909;DHT22;14477;51.038;4.588;2022-12-18T17:02:18;2.50;99.90
26909;DHT22;14477;51.038;4.588;2022-12-18T17:04:45;2.50;99.90
26909;DHT22;14477;51.038;4.588;2022-12-18T17:07:11;2.40;99.90
26909;DHT22;14477;51.038;4.588;2022-12-18T17:09:37;2.50;99.90
26909;DHT22;14477;51.038;4.588;2022-12-18T17:12:03;2.50;99.90
26909;DHT22;14477;51.038;4.588;2022-12-18T17:14:30;2.50;99.90
26909;DHT22;14477;51.038;4.588;2022-12-18T17:16:56;2.50;99.90
26909;DHT22;14477;51.038;4.588;2022-12-18T17:19:23;2.50;99.90
26909;DHT22;14477;51.038;4.588;2022-12-18T17:21:49;2.60;99.90
26909;DHT22;14477;51.038;4.588;2022-12-18T17:24:16;2.60;99.90
26909;DHT22;14477;51.038;4.588;2022-12-18T17:26:42;2.60;99.90
26909;DHT22;14477;51.038;4.588;2022-12-18T17:29:12;2.60;99.90
26909;DHT22;14477;51.038;4.588;2022-12-18T17:31:38;2.60;99.90
26909;DHT22;14477;51.038;4.588;2022-12-18T17:34:04;2.60;99.90
26909;DHT22;14477;51.038;4.588;2022-12-18T17:36:30;2.60;99.90
26909;DHT22;14477;51.038;4.588;2022-12-18T17:38:58;2.60;99.90
26909;DHT22;14477;51.038;4.588;2022-12-18T17:41:25;2.60;99.90
26909;DHT22;14477;51.038;4.588;2022-12-18T17:43:59;2.70;99.90
26909;DHT22;14477;51.038;4.588;2022-12-18T17:46:26;2.70;99.90
26909;DHT22;14477;51.038;4.588;2022-12-18T17:48:54;2.70;99.90
26909;DHT22;14477;51.038;4.588;2022-12-18T17:51:20;2.70;99.90
26909;DHT22;14477;51.038;4.588;2022-12-18T17:53:46;2.70;99.90
26909;DHT22;14477;51.038;4.588;2022-12-18T17:56:13;2.70;99.90
26909;DHT22;14477;51.038;4.588;2022-12-18T17:58:39;2.70;99.90
26909;DHT22;14477;51.038;4.588;2022-12-18T18:01:05;2.70;99.90
26909;DHT22;14477;51.038;4.588;2022-12-18T18:03:32;2.80;99.90
26909;DHT22;14477;51.038;4.588;2022-12-18T18:05:59;2.80;99.90
26909;DHT22;14477;51.038;4.588;2022-12-18T18:08:27;2.70;99.90
26909;DHT22;14477;51.038;4.588;2022-12-18T18:10:53;2.70;99.90